Cold Bay Airport
PACD : now visible

Airfield :











YOU CAN JOIN US ON...

 
LOGIN :

Register | Disclaimer

   EN    FR    IT 

 









Legend :    VFR   Marginal VFR   IFR   Intensive IFR   Very Intensive IFR
Visi :
Ceiling :
>= 8 km
>= 3000ft
5 to 8 km
1000 to 3000 ft
1500m to 5 km
500 to 1000 ft
800 to 1500m
200 to 500 ft
< 800m
< 200 ft
Symbols :   Thunderstorms  Fog  Heavy snow  Heavy precipitations  Wind > 20 kt






- Airport Elevation : 96 ft
- IATA code : CDB


PACD - Cold Bay

CURRENT METAR :
  • 100253Z AUTO 15021G28KT 10SM OVC023 05/M01 A3031 RMK AO2 PK WND 13030/0226 SLP265 T00501011 56003 TSNO

EXPIRED METARs :
  • 100217Z AUTO 13020G27KT 10SM BKN026 04/M02 A3031 RMK AO2 PK WND 17028/0155 T00441022 TSNO
  • 100153Z AUTO 17025KT 10SM CLR 05/M02 A3031 RMK AO2 PK WND 16033/0139 SLP265 T00501022 TSNO
  • 100053Z 17024G32KT 10SM CLR 05/M02 A3031 RMK AO2 PK WND 17033/0043 SLP265 T00501022

TAF PACD
Valid from the 10 at 00:00 until the 11 at 00:00 UTC


092323Z 1000/1024 15025G30KT P6SM SCT025 BKN050
TEMPO 1000/1004 BKN025
FM100900 13015KT P6SM BKN050
FM101800 12015G25KT P6SM BKN025



MET'MAP, your aeronautical weather chart ! - Copyright ORBIFLY December 2007 - Disclaimer

ORBIFLY MET'MAP TEAM :

Programming & Development : Alexandra Zaïnal
Concept & original design : Baudouin d'Aumeries
Assistance for programming : Marc-Olivier Méhu
Technical & hardware support : Manuel Goepfert

Contact : metmap@orbifly.com




SOURCES & CREDITS :

   NOAA       Earth
Advisory